»·PEaware :: WAT1409 KSLC-KSUN

WAT1409 :: KSLC-KSUN

FLIGHT INFORMATION

Flight Status: Arrived
Operator:
Walker Air Transport
More flights by this operator :: More flights under this callsign
Pilot: Matthew T. (18767)
Aircraft: EMBRAER EMB-170/175
(E170)
More flights by this aircraft type
Origin: KSLC Salt Lake City Intl
United States
Destination: KSUN Friedman Meml
United States
More flights between these airports :: More routes between these airports
Route: CGULL1 TWF MENIN OREYE
File this flight plan on PilotEdge
Remarks: RMK / SIMBRIEF
Altitude:
(Current/Filed)
26,000ft
Speed:
(Current/Filed)
409kts
Departed: 25-Feb-23 01:51 PM
Arrived: 25-Feb-23 02:33 PM
Distance/Time
Traveled:
193nm/0:42
Distance/Time
To Go:
Arrived

Flight Plot

Page will automatically refresh every two minutes.

Flight plan parsing failed; only flown route is shown


Map Options




Map Legend


Flown Route
Filed Route
Departure Airport
Arrival Airport
Navaid (VOR, NDB)
Fix

Horizontal Profiles

Position Reports

Time Latitude Longitude Heading Altitude Ground
Speed
25-Feb-23 13:16 40.787114 -111.987312 206 4234ft 0kts
25-Feb-23 13:17 40.787114 -111.987312 206 4234ft 0kts
25-Feb-23 13:18 40.787114 -111.987312 206 4234ft 0kts
25-Feb-23 13:19 40.787114 -111.987312 206 4234ft 0kts
25-Feb-23 13:20 40.787114 -111.987312 206 4234ft 0kts
25-Feb-23 13:21 40.787114 -111.987312 206 4234ft 0kts
25-Feb-23 13:22 40.787114 -111.987312 206 4234ft 0kts
25-Feb-23 13:23 40.787114 -111.987312 206 4234ft 0kts
25-Feb-23 13:24 40.787114 -111.987312 206 4234ft 0kts
25-Feb-23 13:25 40.787114 -111.987312 206 4234ft 0kts
25-Feb-23 13:26 40.787114 -111.987312 206 4234ft 0kts
25-Feb-23 13:27 40.787114 -111.987312 206 4234ft 0kts
25-Feb-23 13:28 40.787114 -111.987312 206 4234ft 0kts
25-Feb-23 13:29 40.787114 -111.987312 206 4234ft 0kts
25-Feb-23 13:30 40.787114 -111.987312 206 4234ft 0kts
25-Feb-23 13:31 40.787114 -111.987312 206 4234ft 0kts
25-Feb-23 13:32 40.787114 -111.987312 206 4234ft 0kts
25-Feb-23 13:33 40.787114 -111.987312 206 4234ft 0kts
25-Feb-23 13:34 40.787114 -111.987312 206 4234ft 0kts
25-Feb-23 13:35 40.787114 -111.987312 206 4234ft 0kts
25-Feb-23 13:36 40.787114 -111.987312 206 4234ft 0kts
25-Feb-23 13:37 40.787114 -111.987312 206 4234ft 0kts
25-Feb-23 13:38 40.787114 -111.987312 206 4234ft 0kts
25-Feb-23 13:39 40.787114 -111.987312 206 4234ft 0kts
25-Feb-23 13:40 40.787114 -111.987312 206 4234ft 0kts
25-Feb-23 13:41 40.787114 -111.987312 206 4234ft 0kts
25-Feb-23 13:42 40.787129 -111.987303 206 4234ft 1kts
25-Feb-23 13:43 40.787176 -111.987511 279 4234ft 0kts
25-Feb-23 13:44 40.787176 -111.987511 279 4234ft 0kts
25-Feb-23 13:45 40.787089 -111.991404 264 4235ft 30kts
25-Feb-23 13:46 40.782299 -111.993184 173 4235ft 14kts
25-Feb-23 13:47 40.778711 -111.992751 175 4234ft 23kts
25-Feb-23 13:48 40.775062 -111.993721 290 4235ft 2kts
25-Feb-23 13:49 40.775973 -111.995591 354 4235ft 0kts
25-Feb-23 13:50 40.801476 -111.998443 354 5179ft 221kts
25-Feb-23 13:51 40.859748 -112.033379 331 7716ft 244kts
25-Feb-23 13:52 40.913044 -112.087554 298 9974ft 264kts
25-Feb-23 13:53 40.947914 -112.184108 305 14869ft 272kts
25-Feb-23 13:54 40.990945 -112.269078 304 16743ft 272kts
25-Feb-23 13:55 41.033959 -112.354592 304 18298ft 279kts
25-Feb-23 13:56 41.092627 -112.436283 345 21466ft 353kts
25-Feb-23 13:57 41.175657 -112.502764 303 25993ft 364kts
25-Feb-23 13:58 41.252416 -112.591459 320 26054ft 375kts
25-Feb-23 13:59 41.320434 -112.681920 312 26051ft 344kts
25-Feb-23 14:00 41.384604 -112.775664 312 26047ft 342kts
25-Feb-23 14:01 41.453142 -112.843576 333 26053ft 344kts
25-Feb-23 14:02 41.480056 -112.860494 334 26046ft 344kts
25-Feb-23 14:03 41.566722 -112.914455 334 26045ft 345kts
25-Feb-23 14:04 41.653672 -112.968665 334 26041ft 346kts
25-Feb-23 14:05 41.740938 -113.023229 335 26021ft 348kts
25-Feb-23 14:06 41.828420 -113.078092 335 26007ft 348kts
25-Feb-23 14:07 41.915942 -113.133147 335 25987ft 349kts
25-Feb-23 14:09 42.003255 -113.188249 335 25978ft 348kts
25-Feb-23 14:10 42.090704 -113.243601 335 25978ft 348kts
25-Feb-23 14:11 42.178413 -113.299283 335 25982ft 348kts
25-Feb-23 14:12 42.265653 -113.354843 335 25982ft 348kts
25-Feb-23 14:13 42.353182 -113.410754 335 25981ft 348kts
25-Feb-23 14:14 42.440328 -113.466599 335 25910ft 350kts
25-Feb-23 14:15 42.526912 -113.522243 334 24167ft 339kts
25-Feb-23 14:16 42.611254 -113.576621 334 22453ft 333kts
25-Feb-23 14:17 42.693507 -113.629810 334 20740ft 325kts
25-Feb-23 14:18 42.774016 -113.682025 333 19034ft 318kts
25-Feb-23 14:19 42.853044 -113.733426 333 17327ft 312kts
25-Feb-23 14:20 42.930480 -113.783936 333 15366ft 306kts
25-Feb-23 14:21 43.005784 -113.833196 333 13366ft 299kts
25-Feb-23 14:22 43.079927 -113.881825 333 11363ft 294kts
25-Feb-23 14:23 43.144559 -113.943187 310 9405ft 292kts
25-Feb-23 14:24 43.193776 -114.020411 321 8589ft 260kts
25-Feb-23 14:25 43.244474 -114.075569 323 8560ft 193kts
25-Feb-23 14:26 43.285928 -114.120318 323 8557ft 171kts
25-Feb-23 14:27 43.320789 -114.157984 323 8582ft 160kts
25-Feb-23 14:28 43.360258 -114.183775 339 7861ft 152kts
25-Feb-23 14:29 43.396597 -114.207924 336 6949ft 146kts
25-Feb-23 14:29 43.424632 -114.229358 333 6756ft 134kts
25-Feb-23 14:31 43.463683 -114.258058 336 6146ft 139kts
25-Feb-23 14:32 43.495910 -114.287980 332 5358ft 136kts
25-Feb-23 14:33 43.508570 -114.300370 305 5327ft 25kts

Navigation Log

Ident Type
Flight plan parsing failed, navigation log unavailable